createdAt,value
2018-08-12T00:00:36.366Z,99931.00
2018-08-12T00:02:43.273Z,99935.00
2018-08-12T00:04:54.318Z,99926.00
2018-08-12T00:06:58.863Z,99923.00
2018-08-12T00:09:03.463Z,99927.00
2018-08-12T00:11:07.999Z,99920.00
2018-08-12T00:13:12.529Z,99929.00
2018-08-12T00:15:19.537Z,99934.00
2018-08-12T00:17:23.998Z,99925.00
2018-08-12T00:19:28.509Z,99922.00
2018-08-12T00:21:33.167Z,99921.00
2018-08-12T00:23:37.669Z,99917.00
2018-08-12T00:25:42.186Z,99916.00
2018-08-12T00:27:46.693Z,99913.00
2018-08-12T00:29:51.492Z,99916.00
2018-08-12T00:31:55.918Z,99919.00
2018-08-12T00:34:00.496Z,99913.00
2018-08-12T00:36:05.063Z,99913.00
2018-08-12T00:38:09.570Z,99910.00
2018-08-12T00:40:16.154Z,99913.00
2018-08-12T00:42:20.633Z,99915.00
2018-08-12T00:44:25.141Z,99919.00
2018-08-12T00:46:29.635Z,99915.00
2018-08-12T00:48:34.085Z,99908.00
2018-08-12T00:50:38.553Z,99918.00
2018-08-12T00:52:43.394Z,99910.00
2018-08-12T00:54:47.945Z,99916.00
2018-08-12T00:56:52.411Z,99902.00
2018-08-12T00:58:57.151Z,99915.00
2018-08-12T01:01:04.420Z,99905.00
2018-08-12T01:03:11.640Z,99900.00
2018-08-12T01:05:21.320Z,99893.00
2018-08-12T01:07:28.114Z,99898.00
2018-08-12T01:09:35.081Z,99891.00
2018-08-12T01:11:42.247Z,99895.00
2018-08-12T01:13:49.858Z,99890.00
2018-08-12T01:15:57.359Z,99895.00
2018-08-12T01:18:04.589Z,99879.00
2018-08-12T01:20:13.827Z,99891.00
2018-08-12T01:22:22.190Z,99888.00
2018-08-12T01:24:29.334Z,99888.00
2018-08-12T01:26:36.201Z,99895.00
2018-08-12T01:28:42.146Z,99891.00
2018-08-12T01:30:47.623Z,99892.00
2018-08-12T01:32:55.024Z,99887.00
2018-08-12T01:35:02.527Z,99890.00
2018-08-12T01:37:10.530Z,99877.00
2018-08-12T01:39:17.260Z,99881.00
2018-08-12T01:41:25.212Z,99886.00
2018-08-12T01:43:32.567Z,99872.00
2018-08-12T01:45:40.946Z,99881.00
2018-08-12T01:47:47.340Z,99877.00
2018-08-12T01:49:52.955Z,99873.00
2018-08-12T01:52:00.656Z,99871.00
2018-08-12T01:54:07.631Z,99867.00
2018-08-12T01:56:14.715Z,99872.00
2018-08-12T01:58:22.446Z,99869.00
2018-08-12T02:00:32.288Z,99860.00
2018-08-12T02:02:36.966Z,99861.00
2018-08-12T02:04:44.330Z,99866.00
2018-08-12T02:06:52.649Z,99867.00
2018-08-12T02:08:59.802Z,99863.00
2018-08-12T02:11:09.699Z,99859.00
2018-08-12T02:13:17.530Z,99856.00
2018-08-12T02:15:24.770Z,99856.00
2018-08-12T02:17:30.512Z,99841.00
2018-08-12T02:19:37.843Z,99850.00
2018-08-12T02:21:42.719Z,99842.00
2018-08-12T02:23:47.190Z,99841.00
2018-08-12T02:25:51.614Z,99831.00
2018-08-12T02:27:56.075Z,99831.00
2018-08-12T02:30:00.618Z,99833.00
2018-08-12T02:32:05.202Z,99827.00
2018-08-12T02:34:09.707Z,99825.00
2018-08-12T02:36:14.163Z,99831.00
2018-08-12T02:38:18.599Z,99826.00
2018-08-12T02:40:23.082Z,99826.00
2018-08-12T02:42:27.722Z,99825.00
2018-08-12T02:44:32.179Z,99820.00
2018-08-12T02:46:36.659Z,99818.00
2018-08-12T02:48:41.139Z,99809.00
2018-08-12T02:50:45.615Z,99821.00
2018-08-12T02:52:50.103Z,99819.00
2018-08-12T02:54:54.651Z,99798.00
2018-08-12T02:56:59.133Z,99819.00
2018-08-12T02:59:03.602Z,99804.00
2018-08-12T03:01:08.116Z,99799.00
2018-08-12T03:03:12.651Z,99793.00
2018-08-12T03:05:17.142Z,99794.00
2018-08-12T03:07:21.745Z,99791.00
2018-08-12T03:09:26.248Z,99780.00
2018-08-12T03:11:30.806Z,99778.00
2018-08-12T03:13:35.242Z,99776.00
2018-08-12T03:15:39.765Z,99774.00
2018-08-12T03:17:44.234Z,99783.00
2018-08-12T03:19:48.703Z,99787.00
2018-08-12T03:21:53.178Z,99774.00
2018-08-12T03:23:57.636Z,99775.00
2018-08-12T03:26:02.267Z,99768.00
2018-08-12T03:28:06.798Z,99757.00
2018-08-12T03:30:12.284Z,99759.00
2018-08-12T03:32:16.541Z,99761.00
2018-08-12T03:34:20.998Z,99759.00
2018-08-12T03:36:25.517Z,99751.00
2018-08-12T03:38:30.057Z,99759.00
2018-08-12T03:40:34.596Z,99751.00
2018-08-12T03:42:39.073Z,99751.00
2018-08-12T03:44:43.538Z,99755.00
2018-08-12T03:46:48.062Z,99754.00
2018-08-12T03:48:52.602Z,99754.00
2018-08-12T03:50:57.094Z,99755.00
2018-08-12T03:53:01.619Z,99752.00
2018-08-12T03:55:07.049Z,99750.00
2018-08-12T03:57:11.521Z,99745.00
2018-08-12T03:59:15.979Z,99747.00
2018-08-12T04:01:21.703Z,99745.00
2018-08-12T04:03:28.821Z,99738.00
2018-08-12T04:05:34.818Z,99729.00
2018-08-12T04:07:42.200Z,99739.00
2018-08-12T04:09:49.315Z,99737.00
2018-08-12T04:11:56.421Z,99740.00
2018-08-12T04:14:01.030Z,99740.00
2018-08-12T04:16:05.586Z,99741.00
2018-08-12T04:18:10.039Z,99735.00
2018-08-12T04:20:14.521Z,99741.00
2018-08-12T04:22:19.027Z,99732.00
2018-08-12T04:24:23.778Z,99731.00
2018-08-12T04:26:28.269Z,99731.00
2018-08-12T04:28:32.705Z,99735.00
2018-08-12T04:30:37.179Z,99736.00
2018-08-12T04:32:41.674Z,99738.00
2018-08-12T04:34:46.094Z,99736.00
2018-08-12T04:36:51.948Z,99728.00
2018-08-12T04:38:56.439Z,99733.00
2018-08-12T04:41:00.920Z,99737.00
2018-08-12T04:43:05.475Z,99739.00
2018-08-12T04:45:10.884Z,99741.00
2018-08-12T04:47:15.347Z,99729.00
2018-08-12T04:49:21.066Z,99727.00
2018-08-12T04:51:25.516Z,99726.00
2018-08-12T04:53:30.131Z,99724.00
2018-08-12T04:55:34.622Z,99713.00
2018-08-12T04:57:39.282Z,99711.00
2018-08-12T04:59:43.710Z,99703.00
2018-08-12T05:01:48.186Z,99710.00
2018-08-12T05:03:52.767Z,99718.00
2018-08-12T05:05:59.505Z,99710.00
2018-08-12T05:08:04.094Z,99708.00
2018-08-12T05:10:08.980Z,99707.00
2018-08-12T05:12:13.463Z,99702.00
2018-08-12T05:14:17.910Z,99703.00
2018-08-12T05:16:22.406Z,99700.00
2018-08-12T05:18:26.815Z,99703.00
2018-08-12T05:20:31.299Z,99704.00
2018-08-12T05:22:35.822Z,99696.00
2018-08-12T05:24:40.292Z,99698.00
2018-08-12T05:26:44.752Z,99707.00
2018-08-12T05:28:49.181Z,99693.00
2018-08-12T05:30:53.670Z,99699.00
2018-08-12T05:32:58.162Z,99697.00
2018-08-12T05:35:02.625Z,99701.00
2018-08-12T05:37:07.242Z,99689.00
2018-08-12T05:39:13.447Z,99690.00
2018-08-12T05:41:18.262Z,99688.00
2018-08-12T05:43:22.850Z,99687.00
2018-08-12T05:45:27.370Z,99682.00
2018-08-12T05:47:31.847Z,99686.00
2018-08-12T05:49:36.329Z,99683.00
2018-08-12T05:51:40.863Z,99679.00
2018-08-12T05:53:45.305Z,99684.00
2018-08-12T05:55:49.754Z,99672.00
2018-08-12T05:57:54.233Z,99681.00
2018-08-12T05:59:58.834Z,99674.00
2018-08-12T06:02:03.386Z,99662.00
2018-08-12T06:04:07.887Z,99672.00
2018-08-12T06:06:12.415Z,99668.00
2018-08-12T06:08:16.902Z,99668.00
2018-08-12T06:10:21.435Z,99666.00
2018-08-12T06:12:26.515Z,99660.00
2018-08-12T06:14:30.954Z,99659.00
2018-08-12T06:16:35.402Z,99652.00
2018-08-12T06:18:39.956Z,99657.00
2018-08-12T06:20:44.430Z,99647.00
2018-08-12T06:22:49.021Z,99654.00
2018-08-12T06:24:53.478Z,99653.00
2018-08-12T06:26:57.974Z,99650.00
2018-08-12T06:29:02.985Z,99648.00
2018-08-12T06:31:07.679Z,99640.00
2018-08-12T06:33:12.146Z,99652.00
2018-08-12T06:35:16.618Z,99647.00
2018-08-12T06:37:21.138Z,99642.00
2018-08-12T06:39:25.602Z,99642.00
2018-08-12T06:41:30.191Z,99644.00
2018-08-12T06:43:34.688Z,99647.00
2018-08-12T06:45:39.176Z,99648.00
2018-08-12T06:47:44.903Z,99649.00
2018-08-12T06:49:49.355Z,99642.00
2018-08-12T06:51:53.901Z,99630.00
2018-08-12T06:53:58.351Z,99643.00
2018-08-12T06:56:02.896Z,99641.00
2018-08-12T06:58:07.435Z,99644.00
2018-08-12T07:00:17.794Z,99638.00
2018-08-12T07:02:22.279Z,99631.00
2018-08-12T07:04:27.348Z,99630.00
2018-08-12T07:06:31.897Z,99616.00
2018-08-12T07:08:37.427Z,99619.00
2018-08-12T07:10:44.096Z,99620.00
2018-08-12T07:12:48.684Z,99622.00
2018-08-12T07:14:53.128Z,99618.00
2018-08-12T07:16:57.682Z,99614.00
2018-08-12T07:19:02.282Z,99611.00
2018-08-12T07:21:06.801Z,99618.00
2018-08-12T07:23:11.322Z,99612.00
2018-08-12T07:25:16.015Z,99608.00
2018-08-12T07:27:20.514Z,99611.00
2018-08-12T07:29:24.965Z,99605.00
2018-08-12T07:31:29.466Z,99605.00
2018-08-12T07:33:34.290Z,99597.00
2018-08-12T07:35:38.871Z,99605.00
2018-08-12T07:37:43.714Z,99603.00
2018-08-12T07:39:48.518Z,99589.00
2018-08-12T07:41:53.058Z,99596.00
2018-08-12T07:43:57.746Z,99588.00
2018-08-12T07:46:02.421Z,99594.00
2018-08-12T07:48:07.458Z,99579.00
2018-08-12T07:50:12.110Z,99581.00
2018-08-12T07:52:16.647Z,99578.00
2018-08-12T07:54:21.118Z,99575.00
2018-08-12T07:56:25.671Z,99570.00
2018-08-12T07:58:30.195Z,99567.00
2018-08-12T08:00:34.842Z,99561.00
2018-08-12T08:02:39.343Z,99566.00
2018-08-12T08:04:43.838Z,99564.00
2018-08-12T08:06:48.367Z,99563.00
2018-08-12T08:08:52.900Z,99562.00
2018-08-12T08:10:57.963Z,99568.00
2018-08-12T08:13:02.523Z,99562.00
2018-08-12T08:15:09.716Z,99567.00
2018-08-12T08:17:14.199Z,99566.00
2018-08-12T08:19:20.062Z,99556.00
2018-08-12T08:21:33.467Z,99560.00
2018-08-12T08:23:39.615Z,99561.00
2018-08-12T08:25:46.377Z,99560.00
2018-08-12T08:27:52.691Z,99550.00
2018-08-12T08:30:00.311Z,99552.00
2018-08-12T08:32:06.646Z,99549.00
2018-08-12T08:34:11.199Z,99554.00
2018-08-12T08:36:15.686Z,99552.00
2018-08-12T08:38:20.237Z,99538.00
2018-08-12T08:40:24.794Z,99538.00
2018-08-12T08:42:29.251Z,99544.00
2018-08-12T08:44:33.772Z,99539.00
2018-08-12T08:46:38.366Z,99541.00
2018-08-12T08:48:42.930Z,99548.00
2018-08-12T08:50:47.473Z,99547.00
2018-08-12T08:52:52.366Z,99546.00
2018-08-12T08:54:56.883Z,99541.00
2018-08-12T08:57:02.327Z,99539.00
2018-08-12T08:59:07.109Z,99538.00
2018-08-12T09:01:11.659Z,99545.00
2018-08-12T09:03:16.158Z,99544.00
2018-08-12T09:05:21.102Z,99538.00
2018-08-12T09:07:25.593Z,99536.00
2018-08-12T09:09:30.106Z,99538.00
2018-08-12T09:11:34.540Z,99539.00
2018-08-12T09:13:39.133Z,99532.00
2018-08-12T09:17:59.270Z,99537.00
2018-08-12T09:20:04.807Z,99531.00
2018-08-12T09:22:09.414Z,99536.00
2018-08-12T09:24:14.943Z,99540.00
2018-08-12T09:26:19.494Z,99530.00
2018-08-12T09:28:24.452Z,99527.00
2018-08-12T09:30:28.927Z,99518.00
2018-08-12T09:32:33.591Z,99515.00
2018-08-12T09:34:39.047Z,99518.00
2018-08-12T09:36:43.598Z,99520.00
2018-08-12T09:38:48.126Z,99513.00
2018-08-12T09:40:52.661Z,99518.00
2018-08-12T09:42:57.221Z,99518.00
2018-08-12T09:45:01.772Z,99515.00
2018-08-12T09:47:06.567Z,99520.00
2018-08-12T09:49:11.060Z,99512.00
2018-08-12T09:51:15.519Z,99512.00
2018-08-12T09:53:20.150Z,99508.00
2018-08-12T09:55:24.680Z,99510.00
2018-08-12T09:57:29.150Z,99496.00
2018-08-12T09:59:33.679Z,99497.00
2018-08-12T10:01:38.166Z,99508.00
2018-08-12T10:03:42.737Z,99501.00
2018-08-12T10:05:47.370Z,99501.00
2018-08-12T10:07:51.874Z,99497.00
2018-08-12T10:09:56.390Z,99498.00
2018-08-12T10:12:00.991Z,99497.00
2018-08-12T10:14:05.654Z,99495.00
2018-08-12T10:16:10.203Z,99494.00
2018-08-12T10:18:14.799Z,99484.00
2018-08-12T10:20:19.453Z,99481.00
2018-08-12T10:22:24.042Z,99497.00
2018-08-12T10:24:28.567Z,99489.00
2018-08-12T10:26:33.076Z,99481.00
2018-08-12T10:28:37.523Z,99468.00
2018-08-12T10:30:41.982Z,99476.00
2018-08-12T10:32:49.386Z,99468.00
2018-08-12T10:34:54.989Z,99462.00
2018-08-12T10:36:59.438Z,99462.00
2018-08-12T10:39:05.310Z,99459.00
2018-08-12T10:41:09.758Z,99467.00
2018-08-12T10:43:14.223Z,99467.00
2018-08-12T10:45:20.840Z,99467.00
2018-08-12T10:47:25.339Z,99464.00
2018-08-12T10:49:29.876Z,99465.00
2018-08-12T10:51:34.375Z,99465.00
2018-08-12T10:53:39.007Z,99455.00
2018-08-12T10:55:43.542Z,99450.00
2018-08-12T10:57:48.122Z,99458.00
2018-08-12T10:59:52.722Z,99456.00
2018-08-12T11:01:57.250Z,99452.00
2018-08-12T11:04:01.835Z,99447.00
2018-08-12T11:06:06.524Z,99453.00
2018-08-12T11:08:11.622Z,99454.00
2018-08-12T11:10:16.254Z,99452.00
2018-08-12T11:12:20.828Z,99453.00
2018-08-12T11:14:25.362Z,99451.00
2018-08-12T11:16:29.832Z,99457.00
2018-08-12T11:18:34.282Z,99452.00
2018-08-12T11:20:38.774Z,99447.00
2018-08-12T11:22:43.414Z,99444.00
2018-08-12T11:24:47.946Z,99433.00
2018-08-12T11:26:52.441Z,99425.00
2018-08-12T11:28:57.000Z,99428.00
2018-08-12T11:31:01.548Z,99426.00
2018-08-12T11:33:06.238Z,99425.00
2018-08-12T11:35:13.987Z,99424.00
2018-08-12T11:37:18.819Z,99420.00
2018-08-12T11:39:23.390Z,99423.00
2018-08-12T11:41:27.978Z,99422.00
2018-08-12T11:43:32.524Z,99413.00
2018-08-12T11:45:37.035Z,99410.00
2018-08-12T11:47:42.371Z,99410.00
2018-08-12T11:49:46.940Z,99404.00
2018-08-12T11:51:51.517Z,99403.00
2018-08-12T11:53:56.001Z,99403.00
2018-08-12T11:56:00.758Z,99399.00
2018-08-12T11:58:05.514Z,99396.00
2018-08-12T12:00:18.516Z,99400.00
2018-08-12T12:02:23.153Z,99398.00
2018-08-12T12:04:27.979Z,99395.00
2018-08-12T12:06:35.209Z,99393.00
2018-08-12T12:08:39.714Z,99384.00
2018-08-12T12:10:44.927Z,99397.00
2018-08-12T12:12:50.427Z,99382.00
2018-08-12T12:14:55.025Z,99380.00
2018-08-12T12:16:59.549Z,99380.00
2018-08-12T12:19:04.666Z,99366.00
2018-08-12T12:21:09.290Z,99363.00
2018-08-12T12:23:14.031Z,99366.00
2018-08-12T12:25:20.016Z,99364.00
2018-08-12T12:27:25.302Z,99353.00
2018-08-12T12:29:29.905Z,99357.00
2018-08-12T12:31:34.398Z,99362.00
2018-08-12T12:33:39.794Z,99363.00
2018-08-12T12:35:44.362Z,99359.00
2018-08-12T12:37:48.938Z,99349.00
2018-08-12T12:39:53.814Z,99355.00
2018-08-12T12:41:58.387Z,99348.00
2018-08-12T12:44:03.609Z,99355.00
2018-08-12T12:46:08.722Z,99352.00
2018-08-12T12:48:13.198Z,99341.00
2018-08-12T12:50:22.597Z,99344.00
2018-08-12T12:52:26.991Z,99338.00
2018-08-12T12:54:31.525Z,99351.00
2018-08-12T12:56:36.037Z,99345.00
2018-08-12T12:58:40.527Z,99349.00
2018-08-12T13:00:44.998Z,99340.00
2018-08-12T13:02:50.229Z,99330.00
2018-08-12T13:04:55.183Z,99335.00
2018-08-12T13:06:59.679Z,99326.00
2018-08-12T13:09:05.682Z,99330.00
2018-08-12T13:11:10.197Z,99321.00
2018-08-12T13:13:14.658Z,99314.00
2018-08-12T13:15:19.386Z,99318.00
2018-08-12T13:17:23.887Z,99310.00
2018-08-12T13:19:28.331Z,99311.00
2018-08-12T13:21:33.233Z,99308.00
2018-08-12T13:23:37.739Z,99287.00
2018-08-12T13:25:42.289Z,99288.00
2018-08-12T13:27:47.067Z,99290.00
2018-08-12T13:29:51.546Z,99284.00
2018-08-12T13:31:56.147Z,99274.00
2018-08-12T13:34:00.575Z,99280.00
2018-08-12T13:36:05.644Z,99272.00
2018-08-12T13:38:10.118Z,99285.00
2018-08-12T13:40:16.590Z,99269.00
2018-08-12T13:42:21.616Z,99268.00
2018-08-12T13:44:26.504Z,99268.00
2018-08-12T13:46:31.260Z,99266.00
2018-08-12T13:48:35.827Z,99247.00
2018-08-12T13:50:41.361Z,99249.00
2018-08-12T13:52:46.523Z,99248.00
2018-08-12T13:54:51.014Z,99254.00
2018-08-12T13:56:55.814Z,99251.00
2018-08-12T13:59:00.332Z,99255.00
2018-08-12T14:01:05.239Z,99249.00
2018-08-12T14:03:09.759Z,99245.00
2018-08-12T14:05:16.781Z,99246.00
2018-08-12T14:07:21.699Z,99241.00
2018-08-12T14:09:26.537Z,99233.00
2018-08-12T14:11:31.035Z,99233.00
2018-08-12T14:13:35.511Z,99226.00
2018-08-12T14:15:39.998Z,99228.00
2018-08-12T14:17:45.598Z,99226.00
2018-08-12T14:19:50.079Z,99222.00
2018-08-12T14:21:54.544Z,99223.00
2018-08-12T14:23:58.995Z,99220.00
2018-08-12T14:26:03.627Z,99218.00
2018-08-12T14:28:08.267Z,99215.00
2018-08-12T14:30:17.471Z,99209.00
2018-08-12T14:32:21.990Z,99205.00
2018-08-12T14:34:26.521Z,99203.00
2018-08-12T14:36:31.298Z,99185.00
2018-08-12T14:38:35.826Z,99184.00
2018-08-12T14:40:40.575Z,99182.00
2018-08-12T14:42:45.615Z,99185.00
2018-08-12T14:44:50.130Z,99182.00
2018-08-12T14:46:54.934Z,99184.00
2018-08-12T14:49:00.413Z,99177.00
2018-08-12T14:51:04.983Z,99168.00
2018-08-12T14:53:11.954Z,99163.00
2018-08-12T14:55:18.920Z,99169.00
2018-08-12T14:57:26.141Z,99166.00
2018-08-12T14:59:30.930Z,99155.00
2018-08-12T15:01:35.517Z,99170.00
2018-08-12T15:03:40.171Z,99168.00
2018-08-12T15:05:44.754Z,99152.00
2018-08-12T15:07:49.372Z,99164.00
2018-08-12T15:09:53.869Z,99154.00
2018-08-12T15:11:58.379Z,99151.00
2018-08-12T15:14:03.096Z,99147.00
2018-08-12T15:16:08.297Z,99151.00
2018-08-12T15:18:12.846Z,99145.00
2018-08-12T15:20:17.822Z,99147.00
2018-08-12T15:22:22.739Z,99139.00
2018-08-12T15:24:27.366Z,99149.00
2018-08-12T15:26:31.837Z,99130.00
2018-08-12T15:28:36.354Z,99127.00
2018-08-12T15:30:40.949Z,99132.00
2018-08-12T15:32:45.754Z,99128.00
2018-08-12T15:34:50.527Z,99122.00
2018-08-12T15:36:55.206Z,99113.00
2018-08-12T15:38:59.763Z,99127.00
2018-08-12T15:41:04.255Z,99127.00
2018-08-12T15:43:08.774Z,99113.00
2018-08-12T15:45:15.190Z,99111.00
2018-08-12T15:47:19.686Z,99111.00
2018-08-12T15:49:24.323Z,99116.00
2018-08-12T15:51:28.815Z,99109.00
2018-08-12T15:53:33.470Z,99109.00
2018-08-12T15:55:37.979Z,99111.00
2018-08-12T15:57:42.470Z,99109.00
2018-08-12T15:59:46.910Z,99105.00
2018-08-12T16:01:51.422Z,99108.00
2018-08-12T16:03:56.681Z,99106.00
2018-08-12T16:06:01.162Z,99112.00
2018-08-12T16:08:05.749Z,99098.00
2018-08-12T16:10:16.696Z,99102.00
2018-08-12T16:12:21.202Z,99103.00
2018-08-12T16:14:26.061Z,99107.00
2018-08-12T16:16:30.604Z,99105.00
2018-08-12T16:18:35.223Z,99113.00
2018-08-12T16:20:39.694Z,99111.00
2018-08-12T16:22:44.248Z,99110.00
2018-08-12T16:24:49.315Z,99109.00
2018-08-12T16:26:54.047Z,99114.00
2018-08-12T16:28:58.666Z,99103.00
2018-08-12T16:31:03.560Z,99102.00
2018-08-12T16:33:08.241Z,99098.00
2018-08-12T16:35:14.482Z,99097.00
2018-08-12T16:37:18.991Z,99094.00
2018-08-12T16:39:23.848Z,99084.00
2018-08-12T16:41:28.402Z,99084.00
2018-08-12T16:43:32.934Z,99076.00
2018-08-12T16:45:37.911Z,99069.00
2018-08-12T16:47:42.802Z,99073.00
2018-08-12T16:49:47.483Z,99069.00
2018-08-12T16:51:51.966Z,99068.00
2018-08-12T16:53:56.534Z,99060.00
2018-08-12T16:56:01.095Z,99065.00
2018-08-12T16:58:06.010Z,99072.00
2018-08-12T17:00:14.749Z,99064.00
2018-08-12T17:02:19.275Z,99064.00
2018-08-12T17:04:23.935Z,99061.00
2018-08-12T17:06:28.246Z,99058.00
2018-08-12T17:08:32.734Z,99062.00
2018-08-12T17:10:37.420Z,99058.00
2018-08-12T17:12:45.146Z,99059.00
2018-08-12T17:14:51.282Z,99061.00
2018-08-12T17:16:55.771Z,99058.00
2018-08-12T17:19:00.581Z,99052.00
2018-08-12T17:21:06.092Z,99054.00
2018-08-12T17:23:10.590Z,99049.00
2018-08-12T17:25:15.227Z,99039.00
2018-08-12T17:27:19.838Z,99040.00
2018-08-12T17:29:24.994Z,99041.00
2018-08-12T17:31:29.978Z,99039.00
2018-08-12T17:33:34.563Z,99031.00
2018-08-12T17:35:39.144Z,99032.00
2018-08-12T17:37:44.873Z,99027.00
2018-08-12T17:39:50.169Z,99019.00
2018-08-12T17:41:54.794Z,99015.00
2018-08-12T17:43:59.802Z,99015.00
2018-08-12T17:46:06.623Z,99001.00
2018-08-12T17:48:14.210Z,99010.00
2018-08-12T17:50:19.974Z,99008.00
2018-08-12T17:52:25.840Z,99000.00
2018-08-12T17:54:33.062Z,99004.00
2018-08-12T17:56:39.821Z,99007.00
2018-08-12T17:58:46.065Z,99001.00
2018-08-12T18:00:51.889Z,98999.00
2018-08-12T18:02:58.068Z,99001.00
2018-08-12T18:05:02.924Z,98994.00
2018-08-12T18:07:10.354Z,98991.00
2018-08-12T18:09:16.718Z,98993.00
2018-08-12T18:11:22.257Z,98986.00
2018-08-12T18:13:28.303Z,98990.00
2018-08-12T18:15:34.125Z,98979.00
2018-08-12T18:17:41.309Z,98981.00
2018-08-12T18:19:48.114Z,98979.00
2018-08-12T18:21:52.759Z,98983.00
2018-08-12T18:23:57.885Z,98988.00
2018-08-12T18:26:03.356Z,98988.00
2018-08-12T18:28:12.454Z,98984.00
2018-08-12T18:30:17.917Z,98981.00
2018-08-12T18:32:23.583Z,98976.00
2018-08-12T18:34:30.073Z,98984.00
2018-08-12T18:36:35.624Z,98982.00
2018-08-12T18:38:41.134Z,98981.00
2018-08-12T18:40:46.510Z,98985.00
2018-08-12T18:42:53.232Z,98982.00
2018-08-12T18:44:58.686Z,98982.00
2018-08-12T18:47:04.998Z,98982.00
2018-08-12T18:49:11.166Z,98981.00
2018-08-12T18:51:17.377Z,98984.00
2018-08-12T18:53:23.477Z,98986.00
2018-08-12T18:55:29.070Z,98986.00
2018-08-12T18:57:34.831Z,98978.00
2018-08-12T18:59:41.284Z,98993.00
2018-08-12T19:01:47.070Z,98989.00
2018-08-12T19:03:52.798Z,98980.00
2018-08-12T19:05:59.090Z,98991.00
2018-08-12T19:08:06.487Z,98989.00
2018-08-12T19:10:12.187Z,98982.00
2018-08-12T19:12:18.041Z,98985.00
2018-08-12T19:14:23.582Z,98987.00
2018-08-12T19:16:30.714Z,98994.00
2018-08-12T19:18:36.363Z,98990.00
2018-08-12T19:20:40.979Z,98982.00
2018-08-12T19:22:45.429Z,98981.00
2018-08-12T19:24:49.845Z,98992.00
2018-08-12T19:26:54.494Z,98980.00
2018-08-12T19:28:59.496Z,98984.00
2018-08-12T19:31:07.021Z,98986.00
2018-08-12T19:33:11.806Z,98983.00
2018-08-12T19:35:16.267Z,98988.00
2018-08-12T19:37:20.986Z,98981.00
2018-08-12T19:39:25.564Z,98984.00
2018-08-12T19:41:30.532Z,98979.00
2018-08-12T19:43:34.919Z,98979.00
2018-08-12T19:45:40.356Z,98976.00
2018-08-12T19:47:45.410Z,98973.00
2018-08-12T19:49:50.590Z,98973.00
2018-08-12T19:51:55.003Z,98976.00
2018-08-12T19:54:00.175Z,98975.00
2018-08-12T19:56:05.117Z,98975.00
2018-08-12T19:58:09.622Z,98979.00
2018-08-12T20:00:15.309Z,98978.00
2018-08-12T20:02:19.670Z,98975.00
2018-08-12T20:04:24.122Z,98975.00
2018-08-12T20:06:28.577Z,98986.00
2018-08-12T20:08:33.142Z,98980.00
2018-08-12T20:10:37.607Z,98981.00
2018-08-12T20:12:42.076Z,98977.00
2018-08-12T20:14:46.610Z,98968.00
2018-08-12T20:16:51.055Z,98964.00
2018-08-12T20:18:55.614Z,98968.00
2018-08-12T20:21:00.230Z,98969.00
2018-08-12T20:23:04.697Z,98970.00
2018-08-12T20:25:09.584Z,98967.00
2018-08-12T20:27:14.520Z,98973.00
2018-08-12T20:29:19.055Z,98962.00
2018-08-12T20:31:23.595Z,98962.00
2018-08-12T20:33:28.138Z,98968.00
2018-08-12T20:35:32.791Z,98972.00
2018-08-12T20:37:37.290Z,98968.00
2018-08-12T20:39:41.856Z,98968.00
2018-08-12T20:41:46.302Z,98969.00
2018-08-12T20:43:51.874Z,98964.00
2018-08-12T20:45:56.308Z,98962.00
2018-08-12T20:48:01.138Z,98955.00
2018-08-12T20:50:07.488Z,98960.00
2018-08-12T20:52:12.048Z,98958.00
2018-08-12T20:54:16.504Z,98956.00
2018-08-12T20:56:21.285Z,98954.00
2018-08-12T20:58:25.759Z,98959.00
2018-08-12T21:00:32.994Z,98947.00
2018-08-12T21:02:37.939Z,98943.00
2018-08-12T21:04:42.378Z,98938.00
2018-08-12T21:06:47.255Z,98938.00
2018-08-12T21:08:51.699Z,98930.00
2018-08-12T21:10:56.162Z,98941.00
2018-08-12T21:13:00.608Z,98943.00
2018-08-12T21:15:05.582Z,98943.00
2018-08-12T21:17:10.348Z,98942.00
2018-08-12T21:19:14.876Z,98944.00
2018-08-12T21:21:19.377Z,98934.00
2018-08-12T21:23:23.890Z,98936.00
2018-08-12T21:25:28.353Z,98930.00
2018-08-12T21:27:32.902Z,98925.00
2018-08-12T21:29:37.371Z,98923.00
2018-08-12T21:31:41.998Z,98925.00
2018-08-12T21:33:46.537Z,98931.00
2018-08-12T21:35:51.015Z,98929.00
2018-08-12T21:37:56.185Z,98917.00
2018-08-12T21:40:00.743Z,98919.00
2018-08-12T21:42:05.861Z,98924.00
2018-08-12T21:44:10.318Z,98926.00
2018-08-12T21:46:15.333Z,98930.00
2018-08-12T21:48:19.758Z,98911.00
2018-08-12T21:50:24.616Z,98919.00
2018-08-12T21:52:29.580Z,98913.00
2018-08-12T21:54:35.227Z,98918.00
2018-08-12T21:56:39.679Z,98908.00
2018-08-12T21:58:44.802Z,98910.00
2018-08-12T22:00:49.296Z,98896.00
2018-08-12T22:02:53.790Z,98901.00
2018-08-12T22:04:58.478Z,98900.00
2018-08-12T22:07:03.006Z,98904.00
2018-08-12T22:09:10.263Z,98900.00
2018-08-12T22:11:14.789Z,98899.00
2018-08-12T22:13:19.414Z,98896.00
2018-08-12T22:15:24.307Z,98905.00
2018-08-12T22:17:29.520Z,98895.00
2018-08-12T22:19:34.430Z,98896.00
2018-08-12T22:21:39.403Z,98896.00
2018-08-12T22:23:43.857Z,98890.00
2018-08-12T22:25:48.458Z,98893.00
2018-08-12T22:27:52.989Z,98891.00
2018-08-12T22:29:57.771Z,98887.00
2018-08-12T22:32:02.239Z,98899.00
2018-08-12T22:34:06.829Z,98892.00
2018-08-12T22:36:11.288Z,98889.00
2018-08-12T22:38:15.782Z,98892.00
2018-08-12T22:40:20.230Z,98893.00
2018-08-12T22:42:24.765Z,98887.00
2018-08-12T22:44:34.199Z,98883.00
2018-08-12T22:46:39.148Z,98878.00
2018-08-12T22:48:46.006Z,98875.00
2018-08-12T22:50:51.608Z,98874.00
2018-08-12T22:53:00.174Z,98868.00
2018-08-12T22:55:08.901Z,98865.00
2018-08-12T22:57:13.419Z,98873.00
2018-08-12T22:59:17.912Z,98864.00
2018-08-12T23:01:22.457Z,98862.00
2018-08-12T23:03:26.918Z,98870.00
2018-08-12T23:05:31.463Z,98856.00
2018-08-12T23:07:35.943Z,98858.00
2018-08-12T23:09:40.557Z,98862.00
2018-08-12T23:11:45.033Z,98853.00
2018-08-12T23:13:49.590Z,98855.00
2018-08-12T23:16:21.245Z,98856.00
2018-08-12T23:18:25.671Z,98858.00
2018-08-12T23:20:32.542Z,98842.00
2018-08-12T23:22:37.030Z,98847.00
2018-08-12T23:24:41.587Z,98842.00
2018-08-12T23:26:46.111Z,98841.00
2018-08-12T23:28:50.594Z,98834.00
2018-08-12T23:30:55.602Z,98834.00
2018-08-12T23:33:00.035Z,98820.00
2018-08-12T23:35:04.511Z,98826.00
2018-08-12T23:37:08.979Z,98815.00
2018-08-12T23:39:13.578Z,98812.00
2018-08-12T23:41:18.027Z,98806.00
2018-08-12T23:43:22.542Z,98809.00
2018-08-12T23:45:26.992Z,98809.00
2018-08-12T23:47:31.409Z,98810.00
2018-08-12T23:49:35.884Z,98808.00
2018-08-12T23:51:40.922Z,98803.00
2018-08-12T23:53:45.673Z,98798.00
2018-08-12T23:55:50.175Z,98804.00
2018-08-12T23:57:54.590Z,98788.00
2018-08-12T23:59:59.034Z,98799.00
